sensor_id;sensor_type;location;lat;lon;timestamp;P1;durP1;ratioP1;P2;durP2;ratioP2
6394;SDS011;3230;42.588;23.358;2023-06-26T00:01:34;29.07;;;16.20;;
6394;SDS011;3230;42.588;23.358;2023-06-26T00:04:00;27.03;;;15.23;;
6394;SDS011;3230;42.588;23.358;2023-06-26T00:06:26;26.40;;;14.80;;
6394;SDS011;3230;42.588;23.358;2023-06-26T00:08:52;24.40;;;16.10;;
6394;SDS011;3230;42.588;23.358;2023-06-26T00:11:19;25.87;;;16.23;;
6394;SDS011;3230;42.588;23.358;2023-06-26T00:13:45;25.90;;;14.90;;
6394;SDS011;3230;42.588;23.358;2023-06-26T00:16:11;26.40;;;16.93;;
6394;SDS011;3230;42.588;23.358;2023-06-26T00:18:36;31.17;;;16.80;;
6394;SDS011;3230;42.588;23.358;2023-06-26T00:21:01;30.20;;;16.83;;
6394;SDS011;3230;42.588;23.358;2023-06-26T00:23:27;29.70;;;16.70;;
6394;SDS011;3230;42.588;23.358;2023-06-26T00:25:52;28.47;;;16.40;;
6394;SDS011;3230;42.588;23.358;2023-06-26T00:28:18;23.50;;;13.87;;
6394;SDS011;3230;42.588;23.358;2023-06-26T00:30:44;25.33;;;16.17;;
6394;SDS011;3230;42.588;23.358;2023-06-26T00:33:09;26.20;;;16.30;;
6394;SDS011;3230;42.588;23.358;2023-06-26T00:35:34;24.50;;;16.07;;
6394;SDS011;3230;42.588;23.358;2023-06-26T00:38:00;23.10;;;15.93;;
6394;SDS011;3230;42.588;23.358;2023-06-26T00:40:26;24.03;;;15.10;;
6394;SDS011;3230;42.588;23.358;2023-06-26T00:42:52;23.10;;;14.00;;
6394;SDS011;3230;42.588;23.358;2023-06-26T00:45:18;22.73;;;14.47;;
6394;SDS011;3230;42.588;23.358;2023-06-26T00:47:44;23.03;;;14.43;;
6394;SDS011;3230;42.588;23.358;2023-06-26T00:50:10;22.60;;;14.23;;
6394;SDS011;3230;42.588;23.358;2023-06-26T00:52:36;22.63;;;15.47;;
6394;SDS011;3230;42.588;23.358;2023-06-26T00:55:03;29.03;;;14.77;;
6394;SDS011;3230;42.588;23.358;2023-06-26T00:57:29;22.00;;;14.20;;
6394;SDS011;3230;42.588;23.358;2023-06-26T00:59:56;20.63;;;13.77;;
6394;SDS011;3230;42.588;23.358;2023-06-26T01:02:22;23.00;;;14.43;;
6394;SDS011;3230;42.588;23.358;2023-06-26T01:04:48;28.47;;;14.77;;
6394;SDS011;3230;42.588;23.358;2023-06-26T01:07:15;19.37;;;13.33;;
6394;SDS011;3230;42.588;23.358;2023-06-26T01:09:44;20.63;;;13.40;;
6394;SDS011;3230;42.588;23.358;2023-06-26T01:12:11;22.60;;;13.30;;
6394;SDS011;3230;42.588;23.358;2023-06-26T01:14:37;18.73;;;12.10;;
6394;SDS011;3230;42.588;23.358;2023-06-26T01:17:02;19.67;;;12.97;;
6394;SDS011;3230;42.588;23.358;2023-06-26T01:19:30;18.80;;;13.13;;
6394;SDS011;3230;42.588;23.358;2023-06-26T01:24:54;20.00;;;12.50;;
6394;SDS011;3230;42.588;23.358;2023-06-26T01:27:29;16.27;;;11.40;;
6394;SDS011;3230;42.588;23.358;2023-06-26T01:29:57;17.40;;;11.30;;
6394;SDS011;3230;42.588;23.358;2023-06-26T01:32:28;17.07;;;12.00;;
6394;SDS011;3230;42.588;23.358;2023-06-26T01:34:54;19.07;;;11.23;;
6394;SDS011;3230;42.588;23.358;2023-06-26T01:37:19;18.87;;;11.50;;
6394;SDS011;3230;42.588;23.358;2023-06-26T01:39:45;14.73;;;10.07;;
6394;SDS011;3230;42.588;23.358;2023-06-26T01:42:10;20.87;;;12.10;;
6394;SDS011;3230;42.588;23.358;2023-06-26T01:44:37;15.60;;;11.00;;
6394;SDS011;3230;42.588;23.358;2023-06-26T01:47:08;17.50;;;11.47;;
6394;SDS011;3230;42.588;23.358;2023-06-26T01:53:32;16.20;;;11.30;;
6394;SDS011;3230;42.588;23.358;2023-06-26T01:55:52;19.10;;;12.40;;
6394;SDS011;3230;42.588;23.358;2023-06-26T01:58:22;20.13;;;12.50;;
6394;SDS011;3230;42.588;23.358;2023-06-26T02:00:49;22.80;;;13.30;;
6394;SDS011;3230;42.588;23.358;2023-06-26T02:03:14;23.33;;;12.13;;
6394;SDS011;3230;42.588;23.358;2023-06-26T02:05:40;23.13;;;13.50;;
6394;SDS011;3230;42.588;23.358;2023-06-26T02:08:08;17.60;;;11.83;;
6394;SDS011;3230;42.588;23.358;2023-06-26T02:10:33;21.90;;;13.03;;
6394;SDS011;3230;42.588;23.358;2023-06-26T02:13:00;18.10;;;11.87;;
6394;SDS011;3230;42.588;23.358;2023-06-26T02:15:25;19.27;;;11.83;;
6394;SDS011;3230;42.588;23.358;2023-06-26T02:17:51;18.70;;;11.63;;
6394;SDS011;3230;42.588;23.358;2023-06-26T02:20:16;21.07;;;11.87;;
6394;SDS011;3230;42.588;23.358;2023-06-26T02:22:42;19.57;;;12.47;;
6394;SDS011;3230;42.588;23.358;2023-06-26T02:25:08;18.17;;;13.30;;
6394;SDS011;3230;42.588;23.358;2023-06-26T02:27:35;19.83;;;13.27;;
6394;SDS011;3230;42.588;23.358;2023-06-26T02:30:00;19.60;;;13.53;;
6394;SDS011;3230;42.588;23.358;2023-06-26T02:32:26;21.20;;;14.07;;
6394;SDS011;3230;42.588;23.358;2023-06-26T02:34:51;23.53;;;14.30;;
6394;SDS011;3230;42.588;23.358;2023-06-26T02:37:17;23.10;;;15.87;;
6394;SDS011;3230;42.588;23.358;2023-06-26T02:39:43;20.50;;;14.23;;
6394;SDS011;3230;42.588;23.358;2023-06-26T02:42:08;25.63;;;15.23;;
6394;SDS011;3230;42.588;23.358;2023-06-26T02:44:34;24.10;;;16.07;;
6394;SDS011;3230;42.588;23.358;2023-06-26T02:46:59;30.30;;;16.60;;
6394;SDS011;3230;42.588;23.358;2023-06-26T02:49:24;28.10;;;17.20;;
6394;SDS011;3230;42.588;23.358;2023-06-26T02:51:50;24.93;;;17.43;;
6394;SDS011;3230;42.588;23.358;2023-06-26T02:54:15;25.70;;;17.53;;
6394;SDS011;3230;42.588;23.358;2023-06-26T02:56:40;25.50;;;16.97;;
6394;SDS011;3230;42.588;23.358;2023-06-26T02:59:06;28.13;;;16.60;;
6394;SDS011;3230;42.588;23.358;2023-06-26T03:01:31;23.83;;;16.90;;
6394;SDS011;3230;42.588;23.358;2023-06-26T03:03:57;29.03;;;16.70;;
6394;SDS011;3230;42.588;23.358;2023-06-26T03:06:22;26.53;;;18.70;;
6394;SDS011;3230;42.588;23.358;2023-06-26T03:08:47;28.97;;;17.70;;
6394;SDS011;3230;42.588;23.358;2023-06-26T03:11:13;25.27;;;16.53;;
6394;SDS011;3230;42.588;23.358;2023-06-26T03:13:38;25.80;;;18.40;;
6394;SDS011;3230;42.588;23.358;2023-06-26T03:16:04;25.23;;;16.87;;
6394;SDS011;3230;42.588;23.358;2023-06-26T03:18:29;28.30;;;18.23;;
6394;SDS011;3230;42.588;23.358;2023-06-26T03:20:55;26.30;;;17.63;;
6394;SDS011;3230;42.588;23.358;2023-06-26T03:23:22;27.00;;;16.60;;
6394;SDS011;3230;42.588;23.358;2023-06-26T03:25:48;27.40;;;18.50;;
6394;SDS011;3230;42.588;23.358;2023-06-26T03:28:14;26.97;;;17.00;;
6394;SDS011;3230;42.588;23.358;2023-06-26T03:30:40;25.43;;;16.60;;
6394;SDS011;3230;42.588;23.358;2023-06-26T03:33:06;24.90;;;18.00;;
6394;SDS011;3230;42.588;23.358;2023-06-26T03:35:31;25.87;;;17.50;;
6394;SDS011;3230;42.588;23.358;2023-06-26T03:37:57;22.77;;;16.60;;
6394;SDS011;3230;42.588;23.358;2023-06-26T03:40:23;26.73;;;18.13;;
6394;SDS011;3230;42.588;23.358;2023-06-26T03:42:48;29.00;;;18.10;;
6394;SDS011;3230;42.588;23.358;2023-06-26T03:45:14;24.83;;;15.13;;
6394;SDS011;3230;42.588;23.358;2023-06-26T03:47:39;29.97;;;16.70;;
6394;SDS011;3230;42.588;23.358;2023-06-26T03:50:05;24.73;;;16.00;;
6394;SDS011;3230;42.588;23.358;2023-06-26T03:52:31;24.03;;;15.87;;
6394;SDS011;3230;42.588;23.358;2023-06-26T03:54:57;24.27;;;17.30;;
6394;SDS011;3230;42.588;23.358;2023-06-26T03:57:23;25.43;;;17.27;;
6394;SDS011;3230;42.588;23.358;2023-06-26T03:59:48;27.87;;;17.70;;
6394;SDS011;3230;42.588;23.358;2023-06-26T04:02:14;23.47;;;16.97;;
6394;SDS011;3230;42.588;23.358;2023-06-26T04:04:40;20.70;;;15.73;;
6394;SDS011;3230;42.588;23.358;2023-06-26T04:07:05;21.87;;;15.87;;
6394;SDS011;3230;42.588;23.358;2023-06-26T04:09:30;20.87;;;14.43;;
6394;SDS011;3230;42.588;23.358;2023-06-26T04:11:56;22.60;;;16.00;;
6394;SDS011;3230;42.588;23.358;2023-06-26T04:14:21;19.07;;;14.20;;
6394;SDS011;3230;42.588;23.358;2023-06-26T04:16:47;18.97;;;14.60;;
6394;SDS011;3230;42.588;23.358;2023-06-26T04:19:12;27.67;;;14.27;;
6394;SDS011;3230;42.588;23.358;2023-06-26T04:21:38;20.37;;;14.57;;
6394;SDS011;3230;42.588;23.358;2023-06-26T04:24:04;19.70;;;14.33;;
6394;SDS011;3230;42.588;23.358;2023-06-26T04:26:29;18.77;;;13.77;;
6394;SDS011;3230;42.588;23.358;2023-06-26T04:28:55;18.27;;;12.00;;
6394;SDS011;3230;42.588;23.358;2023-06-26T04:31:20;17.20;;;12.87;;
6394;SDS011;3230;42.588;23.358;2023-06-26T04:33:47;18.77;;;13.30;;
6394;SDS011;3230;42.588;23.358;2023-06-26T04:36:16;15.73;;;11.97;;
6394;SDS011;3230;42.588;23.358;2023-06-26T04:38:44;19.70;;;13.40;;
6394;SDS011;3230;42.588;23.358;2023-06-26T04:41:09;16.90;;;11.60;;
6394;SDS011;3230;42.588;23.358;2023-06-26T04:43:35;15.00;;;10.60;;
6394;SDS011;3230;42.588;23.358;2023-06-26T04:46:01;14.67;;;11.00;;
6394;SDS011;3230;42.588;23.358;2023-06-26T04:48:27;13.60;;;10.80;;
6394;SDS011;3230;42.588;23.358;2023-06-26T04:50:54;13.60;;;10.30;;
6394;SDS011;3230;42.588;23.358;2023-06-26T04:53:21;14.10;;;10.33;;
6394;SDS011;3230;42.588;23.358;2023-06-26T04:55:48;12.67;;;9.30;;
6394;SDS011;3230;42.588;23.358;2023-06-26T04:58:14;14.30;;;9.17;;
6394;SDS011;3230;42.588;23.358;2023-06-26T05:00:40;11.67;;;9.83;;
6394;SDS011;3230;42.588;23.358;2023-06-26T05:03:07;11.17;;;8.80;;
6394;SDS011;3230;42.588;23.358;2023-06-26T05:05:34;17.93;;;10.57;;
6394;SDS011;3230;42.588;23.358;2023-06-26T05:08:01;12.83;;;9.47;;
6394;SDS011;3230;42.588;23.358;2023-06-26T05:10:39;14.00;;;10.00;;
6394;SDS011;3230;42.588;23.358;2023-06-26T05:13:04;12.17;;;10.33;;
6394;SDS011;3230;42.588;23.358;2023-06-26T05:15:30;11.90;;;8.83;;
6394;SDS011;3230;42.588;23.358;2023-06-26T05:17:55;10.60;;;8.83;;
6394;SDS011;3230;42.588;23.358;2023-06-26T05:20:21;10.23;;;9.00;;
6394;SDS011;3230;42.588;23.358;2023-06-26T05:22:46;10.50;;;8.70;;
6394;SDS011;3230;42.588;23.358;2023-06-26T05:25:12;13.70;;;9.97;;
6394;SDS011;3230;42.588;23.358;2023-06-26T05:27:38;11.97;;;9.30;;
6394;SDS011;3230;42.588;23.358;2023-06-26T05:30:04;13.30;;;9.73;;
6394;SDS011;3230;42.588;23.358;2023-06-26T05:32:30;13.13;;;10.50;;
6394;SDS011;3230;42.588;23.358;2023-06-26T05:34:59;14.60;;;10.47;;
6394;SDS011;3230;42.588;23.358;2023-06-26T05:37:27;16.40;;;10.70;;
6394;SDS011;3230;42.588;23.358;2023-06-26T05:39:53;15.13;;;9.43;;
6394;SDS011;3230;42.588;23.358;2023-06-26T05:42:19;10.33;;;8.53;;
6394;SDS011;3230;42.588;23.358;2023-06-26T05:44:45;10.70;;;8.60;;
6394;SDS011;3230;42.588;23.358;2023-06-26T05:47:10;11.87;;;9.70;;
6394;SDS011;3230;42.588;23.358;2023-06-26T05:49:36;10.30;;;8.83;;
6394;SDS011;3230;42.588;23.358;2023-06-26T05:52:01;12.50;;;8.97;;
6394;SDS011;3230;42.588;23.358;2023-06-26T05:54:27;12.50;;;9.63;;
6394;SDS011;3230;42.588;23.358;2023-06-26T05:56:54;9.03;;;7.87;;
6394;SDS011;3230;42.588;23.358;2023-06-26T05:59:22;10.67;;;8.60;;
6394;SDS011;3230;42.588;23.358;2023-06-26T06:01:48;12.10;;;9.10;;
6394;SDS011;3230;42.588;23.358;2023-06-26T06:04:13;11.07;;;8.80;;
6394;SDS011;3230;42.588;23.358;2023-06-26T06:06:38;11.57;;;9.30;;
6394;SDS011;3230;42.588;23.358;2023-06-26T06:09:04;10.50;;;8.70;;
6394;SDS011;3230;42.588;23.358;2023-06-26T06:11:29;16.10;;;8.37;;
6394;SDS011;3230;42.588;23.358;2023-06-26T06:13:55;10.07;;;8.70;;
6394;SDS011;3230;42.588;23.358;2023-06-26T06:16:20;9.87;;;8.50;;
6394;SDS011;3230;42.588;23.358;2023-06-26T06:18:45;11.10;;;8.60;;
6394;SDS011;3230;42.588;23.358;2023-06-26T06:21:11;13.00;;;8.03;;
6394;SDS011;3230;42.588;23.358;2023-06-26T06:23:36;10.50;;;8.80;;
6394;SDS011;3230;42.588;23.358;2023-06-26T06:26:03;10.27;;;8.17;;
6394;SDS011;3230;42.588;23.358;2023-06-26T06:28:28;9.57;;;8.57;;
6394;SDS011;3230;42.588;23.358;2023-06-26T06:30:54;10.07;;;8.53;;
6394;SDS011;3230;42.588;23.358;2023-06-26T06:33:19;13.10;;;9.80;;
6394;SDS011;3230;42.588;23.358;2023-06-26T06:35:45;11.97;;;8.10;;
6394;SDS011;3230;42.588;23.358;2023-06-26T06:38:10;10.57;;;8.17;;
6394;SDS011;3230;42.588;23.358;2023-06-26T06:40:36;9.33;;;7.57;;
6394;SDS011;3230;42.588;23.358;2023-06-26T06:43:01;17.90;;;7.80;;
6394;SDS011;3230;42.588;23.358;2023-06-26T06:45:27;10.13;;;8.33;;
6394;SDS011;3230;42.588;23.358;2023-06-26T06:47:52;8.40;;;7.57;;
6394;SDS011;3230;42.588;23.358;2023-06-26T06:50:18;10.97;;;8.20;;
6394;SDS011;3230;42.588;23.358;2023-06-26T06:52:43;10.00;;;8.37;;
6394;SDS011;3230;42.588;23.358;2023-06-26T06:55:09;11.80;;;8.10;;
6394;SDS011;3230;42.588;23.358;2023-06-26T06:57:35;12.00;;;10.13;;
6394;SDS011;3230;42.588;23.358;2023-06-26T07:02:36;10.07;;;8.50;;
6394;SDS011;3230;42.588;23.358;2023-06-26T07:05:03;12.50;;;9.00;;
6394;SDS011;3230;42.588;23.358;2023-06-26T07:07:29;9.37;;;8.37;;
6394;SDS011;3230;42.588;23.358;2023-06-26T07:09:57;9.30;;;8.17;;
6394;SDS011;3230;42.588;23.358;2023-06-26T07:12:27;7.70;;;6.90;;
6394;SDS011;3230;42.588;23.358;2023-06-26T07:14:52;8.23;;;6.30;;
6394;SDS011;3230;42.588;23.358;2023-06-26T07:17:19;8.80;;;6.50;;
6394;SDS011;3230;42.588;23.358;2023-06-26T07:19:45;8.77;;;7.70;;
6394;SDS011;3230;42.588;23.358;2023-06-26T07:22:11;6.90;;;6.20;;
6394;SDS011;3230;42.588;23.358;2023-06-26T07:24:37;6.70;;;5.93;;
6394;SDS011;3230;42.588;23.358;2023-06-26T07:27:02;7.03;;;6.27;;
6394;SDS011;3230;42.588;23.358;2023-06-26T07:29:28;6.73;;;6.03;;
6394;SDS011;3230;42.588;23.358;2023-06-26T07:31:53;6.80;;;5.77;;
6394;SDS011;3230;42.588;23.358;2023-06-26T07:34:19;6.17;;;5.57;;
6394;SDS011;3230;42.588;23.358;2023-06-26T07:36:44;5.70;;;5.10;;
6394;SDS011;3230;42.588;23.358;2023-06-26T07:39:10;17.57;;;6.47;;
6394;SDS011;3230;42.588;23.358;2023-06-26T07:41:35;14.23;;;6.37;;
6394;SDS011;3230;42.588;23.358;2023-06-26T07:44:01;12.23;;;5.90;;
6394;SDS011;3230;42.588;23.358;2023-06-26T07:46:27;47.23;;;9.27;;
6394;SDS011;3230;42.588;23.358;2023-06-26T07:48:53;9.03;;;5.23;;
6394;SDS011;3230;42.588;23.358;2023-06-26T07:51:19;6.23;;;5.63;;
6394;SDS011;3230;42.588;23.358;2023-06-26T07:53:44;6.83;;;5.60;;
6394;SDS011;3230;42.588;23.358;2023-06-26T07:56:10;9.60;;;5.63;;
6394;SDS011;3230;42.588;23.358;2023-06-26T07:58:35;6.20;;;5.60;;
6394;SDS011;3230;42.588;23.358;2023-06-26T08:01:01;6.13;;;5.47;;
6394;SDS011;3230;42.588;23.358;2023-06-26T08:03:26;5.17;;;4.17;;
6394;SDS011;3230;42.588;23.358;2023-06-26T08:05:51;4.37;;;3.97;;
6394;SDS011;3230;42.588;23.358;2023-06-26T08:08:17;7.60;;;3.73;;
6394;SDS011;3230;42.588;23.358;2023-06-26T08:10:42;5.73;;;4.60;;
6394;SDS011;3230;42.588;23.358;2023-06-26T08:13:08;7.60;;;5.47;;
6394;SDS011;3230;42.588;23.358;2023-06-26T08:15:33;5.60;;;5.00;;
6394;SDS011;3230;42.588;23.358;2023-06-26T08:17:59;5.27;;;4.10;;
6394;SDS011;3230;42.588;23.358;2023-06-26T08:20:24;5.83;;;4.40;;
6394;SDS011;3230;42.588;23.358;2023-06-26T08:22:50;4.70;;;4.20;;
6394;SDS011;3230;42.588;23.358;2023-06-26T08:25:17;12.33;;;4.60;;
6394;SDS011;3230;42.588;23.358;2023-06-26T08:27:43;5.10;;;4.60;;
6394;SDS011;3230;42.588;23.358;2023-06-26T08:30:08;5.23;;;4.17;;
6394;SDS011;3230;42.588;23.358;2023-06-26T08:32:34;5.70;;;4.40;;
6394;SDS011;3230;42.588;23.358;2023-06-26T08:35:00;5.17;;;4.77;;
6394;SDS011;3230;42.588;23.358;2023-06-26T08:37:25;4.63;;;4.10;;
6394;SDS011;3230;42.588;23.358;2023-06-26T08:39:51;4.23;;;3.47;;
6394;SDS011;3230;42.588;23.358;2023-06-26T08:42:17;4.33;;;3.10;;
6394;SDS011;3230;42.588;23.358;2023-06-26T08:44:42;4.20;;;3.80;;
6394;SDS011;3230;42.588;23.358;2023-06-26T08:47:08;4.50;;;4.10;;
6394;SDS011;3230;42.588;23.358;2023-06-26T08:49:51;10.80;;;4.80;;
6394;SDS011;3230;42.588;23.358;2023-06-26T08:52:24;6.30;;;5.70;;
6394;SDS011;3230;42.588;23.358;2023-06-26T08:55:12;7.43;;;5.10;;
6394;SDS011;3230;42.588;23.358;2023-06-26T08:57:41;5.90;;;5.30;;
6394;SDS011;3230;42.588;23.358;2023-06-26T09:00:07;8.03;;;5.10;;
6394;SDS011;3230;42.588;23.358;2023-06-26T09:02:34;7.07;;;5.23;;
6394;SDS011;3230;42.588;23.358;2023-06-26T09:05:01;9.10;;;5.00;;
6394;SDS011;3230;42.588;23.358;2023-06-26T09:07:28;6.20;;;4.70;;
6394;SDS011;3230;42.588;23.358;2023-06-26T09:09:54;6.00;;;5.40;;
6394;SDS011;3230;42.588;23.358;2023-06-26T09:12:20;5.80;;;5.20;;
6394;SDS011;3230;42.588;23.358;2023-06-26T09:14:46;6.10;;;5.30;;
6394;SDS011;3230;42.588;23.358;2023-06-26T09:17:12;5.77;;;4.80;;
6394;SDS011;3230;42.588;23.358;2023-06-26T09:19:38;7.13;;;5.30;;
6394;SDS011;3230;42.588;23.358;2023-06-26T09:22:04;6.73;;;4.97;;
6394;SDS011;3230;42.588;23.358;2023-06-26T09:24:30;9.83;;;5.83;;
6394;SDS011;3230;42.588;23.358;2023-06-26T09:26:56;6.57;;;4.90;;
6394;SDS011;3230;42.588;23.358;2023-06-26T09:29:22;6.33;;;4.80;;
6394;SDS011;3230;42.588;23.358;2023-06-26T09:31:48;10.80;;;5.27;;
6394;SDS011;3230;42.588;23.358;2023-06-26T09:34:16;5.70;;;4.70;;
6394;SDS011;3230;42.588;23.358;2023-06-26T09:36:44;5.20;;;4.30;;
6394;SDS011;3230;42.588;23.358;2023-06-26T09:39:11;8.07;;;5.60;;
6394;SDS011;3230;42.588;23.358;2023-06-26T09:41:37;5.80;;;4.67;;
6394;SDS011;3230;42.588;23.358;2023-06-26T09:44:06;7.80;;;5.53;;
6394;SDS011;3230;42.588;23.358;2023-06-26T09:46:33;10.00;;;5.50;;
6394;SDS011;3230;42.588;23.358;2023-06-26T09:49:05;8.63;;;5.00;;
6394;SDS011;3230;42.588;23.358;2023-06-26T09:51:32;8.00;;;5.83;;
6394;SDS011;3230;42.588;23.358;2023-06-26T09:54:00;7.20;;;5.17;;
6394;SDS011;3230;42.588;23.358;2023-06-26T09:56:26;9.27;;;5.80;;
6394;SDS011;3230;42.588;23.358;2023-06-26T09:58:55;7.53;;;5.23;;
6394;SDS011;3230;42.588;23.358;2023-06-26T10:01:22;6.83;;;5.40;;
6394;SDS011;3230;42.588;23.358;2023-06-26T10:03:49;8.00;;;5.87;;
6394;SDS011;3230;42.588;23.358;2023-06-26T10:06:14;6.90;;;5.90;;
6394;SDS011;3230;42.588;23.358;2023-06-26T10:08:42;6.80;;;5.30;;
6394;SDS011;3230;42.588;23.358;2023-06-26T10:11:09;6.03;;;4.70;;
6394;SDS011;3230;42.588;23.358;2023-06-26T10:13:45;6.43;;;5.03;;
6394;SDS011;3230;42.588;23.358;2023-06-26T10:16:14;8.80;;;5.83;;
6394;SDS011;3230;42.588;23.358;2023-06-26T10:18:46;9.10;;;5.60;;
6394;SDS011;3230;42.588;23.358;2023-06-26T10:21:14;6.37;;;4.73;;
6394;SDS011;3230;42.588;23.358;2023-06-26T10:23:40;8.40;;;5.50;;
6394;SDS011;3230;42.588;23.358;2023-06-26T10:26:08;7.07;;;5.20;;
6394;SDS011;3230;42.588;23.358;2023-06-26T10:28:37;9.63;;;5.30;;
6394;SDS011;3230;42.588;23.358;2023-06-26T10:31:04;9.27;;;5.30;;
6394;SDS011;3230;42.588;23.358;2023-06-26T10:33:33;6.90;;;5.10;;
6394;SDS011;3230;42.588;23.358;2023-06-26T10:36:17;8.77;;;5.17;;
6394;SDS011;3230;42.588;23.358;2023-06-26T10:41:45;6.57;;;5.27;;
6394;SDS011;3230;42.588;23.358;2023-06-26T10:44:11;6.53;;;4.63;;
6394;SDS011;3230;42.588;23.358;2023-06-26T10:49:27;9.30;;;5.27;;
6394;SDS011;3230;42.588;23.358;2023-06-26T10:51:54;6.80;;;4.57;;
6394;SDS011;3230;42.588;23.358;2023-06-26T10:54:23;7.10;;;5.40;;
6394;SDS011;3230;42.588;23.358;2023-06-26T10:56:55;6.30;;;4.80;;
6394;SDS011;3230;42.588;23.358;2023-06-26T10:59:22;6.03;;;4.80;;
6394;SDS011;3230;42.588;23.358;2023-06-26T11:01:59;6.07;;;4.90;;
6394;SDS011;3230;42.588;23.358;2023-06-26T11:07:21;6.30;;;4.60;;
6394;SDS011;3230;42.588;23.358;2023-06-26T11:15:10;8.47;;;5.00;;
6394;SDS011;3230;42.588;23.358;2023-06-26T11:17:37;7.63;;;5.30;;
6394;SDS011;3230;42.588;23.358;2023-06-26T11:20:06;10.03;;;5.80;;
6394;SDS011;3230;42.588;23.358;2023-06-26T11:22:40;8.50;;;5.23;;
6394;SDS011;3230;42.588;23.358;2023-06-26T11:25:06;8.73;;;6.20;;
6394;SDS011;3230;42.588;23.358;2023-06-26T11:30:02;18.93;;;6.60;;
6394;SDS011;3230;42.588;23.358;2023-06-26T11:32:27;12.60;;;6.30;;
6394;SDS011;3230;42.588;23.358;2023-06-26T11:34:54;9.53;;;6.27;;
6394;SDS011;3230;42.588;23.358;2023-06-26T11:37:20;8.73;;;5.60;;
6394;SDS011;3230;42.588;23.358;2023-06-26T11:39:46;14.70;;;5.67;;
6394;SDS011;3230;42.588;23.358;2023-06-26T11:42:12;8.43;;;5.50;;
6394;SDS011;3230;42.588;23.358;2023-06-26T11:44:41;8.17;;;5.60;;
6394;SDS011;3230;42.588;23.358;2023-06-26T11:47:13;7.37;;;5.73;;
6394;SDS011;3230;42.588;23.358;2023-06-26T11:49:43;8.03;;;5.53;;
6394;SDS011;3230;42.588;23.358;2023-06-26T11:52:10;7.67;;;5.83;;
6394;SDS011;3230;42.588;23.358;2023-06-26T11:54:36;8.50;;;6.00;;
6394;SDS011;3230;42.588;23.358;2023-06-26T11:57:02;6.60;;;5.00;;
6394;SDS011;3230;42.588;23.358;2023-06-26T11:59:35;7.27;;;5.70;;
6394;SDS011;3230;42.588;23.358;2023-06-26T12:02:04;6.87;;;4.80;;
6394;SDS011;3230;42.588;23.358;2023-06-26T12:04:35;6.20;;;4.97;;
6394;SDS011;3230;42.588;23.358;2023-06-26T12:07:03;10.47;;;5.63;;
6394;SDS011;3230;42.588;23.358;2023-06-26T12:09:32;6.43;;;4.80;;
6394;SDS011;3230;42.588;23.358;2023-06-26T12:12:01;6.10;;;4.90;;
6394;SDS011;3230;42.588;23.358;2023-06-26T12:14:27;6.90;;;5.00;;
6394;SDS011;3230;42.588;23.358;2023-06-26T12:16:56;7.77;;;5.10;;
6394;SDS011;3230;42.588;23.358;2023-06-26T12:19:28;6.37;;;4.90;;
6394;SDS011;3230;42.588;23.358;2023-06-26T12:21:54;6.97;;;5.23;;
6394;SDS011;3230;42.588;23.358;2023-06-26T12:24:22;6.77;;;5.00;;
6394;SDS011;3230;42.588;23.358;2023-06-26T12:26:51;10.00;;;5.10;;
6394;SDS011;3230;42.588;23.358;2023-06-26T12:29:21;10.87;;;5.10;;
6394;SDS011;3230;42.588;23.358;2023-06-26T12:31:56;8.40;;;5.30;;
6394;SDS011;3230;42.588;23.358;2023-06-26T12:34:29;8.90;;;5.67;;
6394;SDS011;3230;42.588;23.358;2023-06-26T12:37:15;8.30;;;5.50;;
6394;SDS011;3230;42.588;23.358;2023-06-26T12:39:49;10.97;;;5.77;;
6394;SDS011;3230;42.588;23.358;2023-06-26T12:42:19;7.63;;;5.37;;
6394;SDS011;3230;42.588;23.358;2023-06-26T12:44:47;6.80;;;5.20;;
6394;SDS011;3230;42.588;23.358;2023-06-26T12:47:13;7.53;;;5.57;;
6394;SDS011;3230;42.588;23.358;2023-06-26T12:49:41;5.97;;;5.07;;
6394;SDS011;3230;42.588;23.358;2023-06-26T12:52:09;6.63;;;5.07;;
6394;SDS011;3230;42.588;23.358;2023-06-26T12:54:36;7.80;;;5.30;;
6394;SDS011;3230;42.588;23.358;2023-06-26T12:57:03;8.10;;;5.23;;
6394;SDS011;3230;42.588;23.358;2023-06-26T12:59:30;7.83;;;5.00;;
6394;SDS011;3230;42.588;23.358;2023-06-26T13:01:56;6.13;;;4.50;;
6394;SDS011;3230;42.588;23.358;2023-06-26T13:04:22;10.37;;;4.87;;
6394;SDS011;3230;42.588;23.358;2023-06-26T13:06:47;7.27;;;4.90;;
6394;SDS011;3230;42.588;23.358;2023-06-26T13:09:13;14.30;;;7.03;;
6394;SDS011;3230;42.588;23.358;2023-06-26T13:11:39;11.00;;;5.40;;
6394;SDS011;3230;42.588;23.358;2023-06-26T13:14:04;6.90;;;4.80;;
6394;SDS011;3230;42.588;23.358;2023-06-26T13:16:30;6.63;;;4.90;;
6394;SDS011;3230;42.588;23.358;2023-06-26T13:18:57;6.57;;;4.40;;
6394;SDS011;3230;42.588;23.358;2023-06-26T13:21:24;6.63;;;4.50;;
6394;SDS011;3230;42.588;23.358;2023-06-26T13:23:49;24.00;;;5.73;;
6394;SDS011;3230;42.588;23.358;2023-06-26T13:26:15;11.40;;;5.17;;
6394;SDS011;3230;42.588;23.358;2023-06-26T13:28:40;10.70;;;5.63;;
6394;SDS011;3230;42.588;23.358;2023-06-26T13:31:06;8.87;;;4.90;;
6394;SDS011;3230;42.588;23.358;2023-06-26T13:33:31;8.63;;;6.10;;
6394;SDS011;3230;42.588;23.358;2023-06-26T13:35:57;6.90;;;5.17;;
6394;SDS011;3230;42.588;23.358;2023-06-26T13:38:23;7.03;;;5.63;;
6394;SDS011;3230;42.588;23.358;2023-06-26T13:40:53;7.00;;;5.83;;
6394;SDS011;3230;42.588;23.358;2023-06-26T13:43:20;7.90;;;5.57;;
6394;SDS011;3230;42.588;23.358;2023-06-26T13:45:47;7.10;;;5.67;;
6394;SDS011;3230;42.588;23.358;2023-06-26T13:48:13;10.73;;;5.37;;
6394;SDS011;3230;42.588;23.358;2023-06-26T13:50:38;8.00;;;5.73;;
6394;SDS011;3230;42.588;23.358;2023-06-26T13:53:04;8.47;;;5.43;;
6394;SDS011;3230;42.588;23.358;2023-06-26T13:55:30;9.00;;;5.47;;
6394;SDS011;3230;42.588;23.358;2023-06-26T13:57:56;19.07;;;5.70;;
6394;SDS011;3230;42.588;23.358;2023-06-26T14:00:22;9.33;;;5.67;;
6394;SDS011;3230;42.588;23.358;2023-06-26T14:02:48;8.50;;;5.63;;
6394;SDS011;3230;42.588;23.358;2023-06-26T14:05:13;7.73;;;5.70;;
6394;SDS011;3230;42.588;23.358;2023-06-26T14:07:39;8.60;;;5.50;;
6394;SDS011;3230;42.588;23.358;2023-06-26T14:10:05;9.30;;;5.23;;
6394;SDS011;3230;42.588;23.358;2023-06-26T14:12:31;6.80;;;5.03;;
6394;SDS011;3230;42.588;23.358;2023-06-26T14:14:57;9.87;;;5.43;;
6394;SDS011;3230;42.588;23.358;2023-06-26T14:17:23;8.33;;;5.57;;
6394;SDS011;3230;42.588;23.358;2023-06-26T14:19:51;8.93;;;5.27;;
6394;SDS011;3230;42.588;23.358;2023-06-26T14:22:17;7.00;;;5.70;;
6394;SDS011;3230;42.588;23.358;2023-06-26T14:24:42;7.50;;;5.50;;
6394;SDS011;3230;42.588;23.358;2023-06-26T14:27:08;7.57;;;5.63;;
6394;SDS011;3230;42.588;23.358;2023-06-26T14:29:33;7.87;;;5.80;;
6394;SDS011;3230;42.588;23.358;2023-06-26T14:31:59;8.40;;;5.50;;
6394;SDS011;3230;42.588;23.358;2023-06-26T14:34:25;7.63;;;6.30;;
6394;SDS011;3230;42.588;23.358;2023-06-26T14:36:50;8.70;;;6.10;;
6394;SDS011;3230;42.588;23.358;2023-06-26T14:39:16;7.60;;;5.50;;
6394;SDS011;3230;42.588;23.358;2023-06-26T14:41:41;6.10;;;4.53;;
6394;SDS011;3230;42.588;23.358;2023-06-26T14:44:08;7.47;;;5.63;;
6394;SDS011;3230;42.588;23.358;2023-06-26T14:46:36;6.60;;;4.80;;
6394;SDS011;3230;42.588;23.358;2023-06-26T14:49:02;12.33;;;6.07;;
6394;SDS011;3230;42.588;23.358;2023-06-26T14:51:28;7.13;;;4.70;;
6394;SDS011;3230;42.588;23.358;2023-06-26T14:53:54;9.43;;;5.20;;
6394;SDS011;3230;42.588;23.358;2023-06-26T14:56:20;6.87;;;4.73;;
6394;SDS011;3230;42.588;23.358;2023-06-26T14:58:45;6.90;;;5.10;;
6394;SDS011;3230;42.588;23.358;2023-06-26T15:01:14;6.43;;;5.00;;
6394;SDS011;3230;42.588;23.358;2023-06-26T15:03:44;9.03;;;4.90;;
6394;SDS011;3230;42.588;23.358;2023-06-26T15:06:13;9.00;;;5.03;;
6394;SDS011;3230;42.588;23.358;2023-06-26T15:08:38;10.50;;;5.70;;
6394;SDS011;3230;42.588;23.358;2023-06-26T15:11:04;8.13;;;6.33;;
6394;SDS011;3230;42.588;23.358;2023-06-26T15:13:29;13.50;;;7.07;;